Time;durP1;ratioP1;P1;durP2;ratioP2;P2;SDS_P1;SDS_P2;PMS_P1;PMS_P2;Temp;Humidity;BMP_temperature;BMP_pressure;BME280_temperature;BME280_humidity;BME280_pressure;Samples;Min_cycle;Max_cycle;Signal;HPM_P1;HPM_P2
2023/04/01 00:02:18;;;;;;;3.50;0.68;;;14.30;51.90;;;;;;4964544;28;20431;-56
2023/04/01 00:04:45;;;;;;;1.77;0.50;;;14.30;51.90;;;;;;4964424;28;20503;-46
2023/04/01 00:07:13;;;;;;;2.03;0.35;;;14.30;51.90;;;;;;4964917;28;20055;-53
2023/04/01 00:09:41;;;;;;;2.45;0.50;;;14.30;51.90;;;;;;4966017;28;20534;-46
2023/04/01 00:12:09;;;;;;;2.47;0.30;;;14.20;51.90;;;;;;4965895;28;20055;-48
2023/04/01 00:14:37;;;;;;;1.45;0.63;;;14.30;52.50;;;;;;4966616;28;20578;-48
2023/04/01 00:17:05;;;;;;;2.00;0.43;;;14.20;52.10;;;;;;4962777;28;20058;-46
2023/04/01 00:19:32;;;;;;;2.38;0.38;;;14.20;52.20;;;;;;4963593;28;20479;-48
2023/04/01 00:22:00;;;;;;;3.03;0.50;;;14.20;52.30;;;;;;4965755;28;20061;-46
2023/04/01 00:24:27;;;;;;;3.35;0.38;;;14.20;52.30;;;;;;4964284;28;20057;-46
2023/04/01 00:26:54;;;;;;;2.08;0.45;;;14.20;52.40;;;;;;4964179;28;20050;-46
2023/04/01 00:29:28;;;;;;;2.75;0.60;;;14.20;52.50;;;;;;4965729;28;20055;-46
2023/04/01 00:31:56;;;;;;;1.10;0.30;;;14.10;52.60;;;;;;4966620;28;20058;-47
2023/04/01 00:34:24;;;;;;;1.40;0.40;;;14.20;52.70;;;;;;4963310;28;20047;-46
2023/04/01 00:36:52;;;;;;;3.20;0.55;;;14.20;52.70;;;;;;4967517;28;20046;-47
2023/04/01 00:39:20;;;;;;;0.75;0.32;;;14.10;52.80;;;;;;4964659;28;20686;-46
2023/04/01 00:41:48;;;;;;;2.05;0.50;;;14.10;52.80;;;;;;4966312;28;20055;-56
2023/04/01 00:44:18;;;;;;;3.60;0.55;;;14.10;52.80;;;;;;4965078;28;20393;-47
2023/04/01 00:46:47;;;;;;;2.25;0.40;;;14.10;52.80;;;;;;4967789;28;20054;-45
2023/04/01 00:49:16;;;;;;;0.30;0.25;;;14.10;52.80;;;;;;4964280;28;20055;-52
2023/04/01 00:51:44;;;;;;;3.10;0.65;;;14.10;52.80;;;;;;4965739;28;20054;-46
2023/04/01 00:54:12;;;;;;;1.15;0.30;;;14.10;52.80;;;;;;4966074;28;20414;-46
2023/04/01 00:56:48;;;;;;;2.05;0.52;;;14.00;52.80;;;;;;4964385;28;20066;-45
2023/04/01 00:59:19;;;;;;;0.60;0.30;;;14.00;52.80;;;;;;4965820;28;20062;-45
2023/04/01 01:01:48;;;;;;;1.13;0.38;;;14.00;52.80;;;;;;4963547;28;20066;-48
2023/04/01 01:04:27;;;;;;;1.80;0.40;;;14.00;52.80;;;;;;4963279;28;20136;-48
2023/04/01 01:07:04;;;;;;;1.75;0.38;;;14.00;52.80;;;;;;4965257;28;20054;-47
2023/04/01 01:09:40;;;;;;;1.73;0.50;;;14.00;52.80;;;;;;4965094;28;20055;-45
2023/04/01 01:12:14;;;;;;;3.17;0.50;;;14.00;52.80;;;;;;4965656;28;20055;-48
2023/04/01 01:15:03;;;;;;;0.98;0.30;;;14.00;52.80;;;;;;4963087;28;20517;-46
2023/04/01 01:17:40;;;;;;;2.75;0.35;;;14.00;52.90;;;;;;4964127;28;20761;-47
2023/04/01 01:20:39;;;;;;;4.72;0.40;;;14.00;52.90;;;;;;4966066;28;20069;-46
2023/04/01 01:23:36;;;;;;;1.92;0.38;;;13.90;52.80;;;;;;4939676;28;20069;-47
2023/04/01 01:26:22;;;;;;;0.55;0.25;;;13.90;52.90;;;;;;4963611;28;20058;-47
2023/04/01 01:28:58;;;;;;;0.93;0.15;;;13.90;52.90;;;;;;4964435;28;20063;-47
2023/04/01 01:31:34;;;;;;;3.42;0.50;;;13.90;52.80;;;;;;4963554;28;20051;-45
2023/04/01 01:34:15;;;;;;;2.60;0.47;;;13.90;52.90;;;;;;4965044;28;20054;-54
2023/04/01 01:36:49;;;;;;;1.30;0.38;;;13.90;52.90;;;;;;4966344;28;20055;-49
2023/04/01 01:39:18;;;;;;;0.65;0.30;;;13.90;52.90;;;;;;4967634;28;20066;-47
2023/04/01 01:41:49;;;;;;;1.73;0.40;;;13.90;52.80;;;;;;4966237;28;20063;-45
2023/04/01 01:44:17;;;;;;;0.30;0.20;;;13.90;52.80;;;;;;4963869;28;20050;-52
2023/04/01 01:46:46;;;;;;;2.97;0.60;;;13.90;52.90;;;;;;4965017;28;20046;-47
2023/04/01 01:49:15;;;;;;;2.28;0.40;;;13.90;52.80;;;;;;4963239;28;20054;-47
2023/04/01 01:51:44;;;;;;;1.75;0.30;;;13.90;52.80;;;;;;4963949;28;20055;-47
2023/04/01 01:54:13;;;;;;;1.35;0.20;;;13.90;52.80;;;;;;4964775;28;20050;-49
2023/04/01 01:56:44;;;;;;;2.60;0.25;;;13.90;52.80;;;;;;4960119;28;20059;-45
2023/04/01 01:59:14;;;;;;;0.65;0.20;;;13.80;52.80;;;;;;4962685;28;20498;-48
2023/04/01 02:01:46;;;;;;;1.85;0.25;;;13.90;52.90;;;;;;4964545;28;20073;-50
2023/04/01 02:04:15;;;;;;;1.45;0.30;;;13.80;52.80;;;;;;4960616;28;20471;-53
2023/04/01 02:06:52;;;;;;;1.52;0.30;;;13.90;52.80;;;;;;4964134;28;20605;-46
2023/04/01 02:09:20;;;;;;;1.17;0.30;;;13.90;52.80;;;;;;4964708;28;20058;-48
2023/04/01 02:11:52;;;;;;;1.98;0.30;;;13.80;52.80;;;;;;4961780;28;20054;-47
2023/04/01 02:14:23;;;;;;;1.80;0.28;;;13.80;52.80;;;;;;4965839;28;20059;-57
2023/04/01 02:16:56;;;;;;;1.95;0.40;;;13.90;52.80;;;;;;4962955;28;20050;-54
2023/04/01 02:19:28;;;;;;;2.15;0.30;;;13.80;52.80;;;;;;4962956;28;20050;-47
2023/04/01 02:22:00;;;;;;;1.42;0.40;;;13.80;52.80;;;;;;4963659;28;20065;-48
2023/04/01 02:24:31;;;;;;;1.98;0.40;;;13.80;52.80;;;;;;4962362;28;20046;-46
2023/04/01 02:26:59;;;;;;;1.88;0.38;;;13.90;52.80;;;;;;4965575;28;20069;-56
2023/04/01 02:29:27;;;;;;;0.73;0.28;;;13.80;52.80;;;;;;4964121;28;20391;-45
2023/04/01 02:31:56;;;;;;;4.75;0.47;;;13.80;52.80;;;;;;4964595;28;20062;-46
2023/04/01 02:34:25;;;;;;;0.70;0.17;;;13.80;52.80;;;;;;4963278;28;20057;-49
2023/04/01 02:36:54;;;;;;;2.15;0.28;;;13.80;52.80;;;;;;4963605;28;20066;-47
2023/04/01 02:39:25;;;;;;;0.55;0.20;;;13.90;53.00;;;;;;4964030;28;20070;-46
2023/04/01 02:41:53;;;;;;;0.93;0.30;;;13.80;53.00;;;;;;4963629;28;20614;-45
2023/04/01 02:44:21;;;;;;;0.52;0.20;;;13.80;53.40;;;;;;4967069;28;20069;-46
2023/04/01 02:46:48;;;;;;;1.80;0.30;;;13.80;53.00;;;;;;4967411;28;20058;-50
2023/04/01 02:49:16;;;;;;;1.80;0.45;;;13.80;53.10;;;;;;4967972;28;20154;-43
2023/04/01 02:51:44;;;;;;;1.33;0.38;;;13.80;53.10;;;;;;4965269;28;20530;-47
2023/04/01 02:54:11;;;;;;;0.70;0.38;;;13.80;53.20;;;;;;4963632;28;20573;-46
2023/04/01 02:56:40;;;;;;;1.60;0.35;;;13.80;53.30;;;;;;4963298;28;20054;-49
2023/04/01 02:59:07;;;;;;;2.95;0.38;;;13.80;53.50;;;;;;4962660;28;20066;-45
2023/04/01 03:01:34;;;;;;;1.65;0.45;;;13.80;53.60;;;;;;4964290;28;20178;-45
2023/04/01 03:04:02;;;;;;;0.88;0.20;;;13.80;53.70;;;;;;4963870;28;20434;-46
2023/04/01 03:06:29;;;;;;;4.32;0.60;;;13.80;53.80;;;;;;4963594;28;20047;-45
2023/04/01 03:08:57;;;;;;;1.20;0.20;;;13.80;53.90;;;;;;4964353;28;20061;-45
2023/04/01 03:11:25;;;;;;;0.52;0.30;;;13.80;54.10;;;;;;4963858;28;20058;-51
2023/04/01 03:13:54;;;;;;;3.55;0.38;;;13.70;54.10;;;;;;4961383;28;20074;-47
2023/04/01 03:16:22;;;;;;;2.83;0.38;;;13.70;54.20;;;;;;4962908;28;20073;-47
2023/04/01 03:18:52;;;;;;;1.63;0.32;;;13.70;54.20;;;;;;4964522;28;20062;-47
2023/04/01 03:21:21;;;;;;;2.97;0.93;;;13.70;54.30;;;;;;4965863;28;20047;-47
2023/04/01 03:23:49;;;;;;;1.67;0.32;;;13.70;54.90;;;;;;4969764;28;20051;-46
2023/04/01 03:26:17;;;;;;;2.38;0.32;;;13.60;54.50;;;;;;4967691;28;20050;-47
2023/04/01 03:28:45;;;;;;;3.40;0.30;;;13.60;54.60;;;;;;4966891;28;20517;-45
2023/04/01 03:31:15;;;;;;;1.67;0.32;;;13.60;54.70;;;;;;4968001;28;20055;-52
2023/04/01 03:33:43;;;;;;;0.68;0.10;;;13.60;54.80;;;;;;4966698;28;20062;-46
2023/04/01 03:36:12;;;;;;;1.65;0.30;;;13.60;54.90;;;;;;4969760;28;20557;-46
2023/04/01 03:38:40;;;;;;;0.82;0.10;;;13.50;54.90;;;;;;4968146;28;20051;-47
2023/04/01 03:41:08;;;;;;;2.40;0.52;;;13.50;55.00;;;;;;4966650;28;20051;-46
2023/04/01 03:43:36;;;;;;;0.70;0.20;;;13.50;55.10;;;;;;4966397;28;20063;-46
2023/04/01 03:46:05;;;;;;;1.17;0.20;;;13.50;55.10;;;;;;4966150;28;20062;-46
2023/04/01 03:48:34;;;;;;;4.15;0.28;;;13.50;55.10;;;;;;4966834;28;20047;-47
2023/04/01 03:51:02;;;;;;;0.43;0.13;;;13.50;55.20;;;;;;4967614;28;20154;-46
2023/04/01 03:53:29;;;;;;;1.77;0.28;;;13.40;55.20;;;;;;4968290;28;20440;-48
2023/04/01 03:55:56;;;;;;;3.15;0.32;;;13.40;55.30;;;;;;4968685;28;20495;-48
2023/04/01 03:58:23;;;;;;;0.73;0.15;;;13.40;55.40;;;;;;4969771;28;20478;-45
2023/04/01 04:00:51;;;;;;;1.45;0.30;;;13.40;55.40;;;;;;4969667;28;20069;-48
2023/04/01 04:03:18;;;;;;;5.47;0.15;;;13.40;55.50;;;;;;4969546;28;20055;-46
2023/04/01 04:05:50;;;;;;;1.20;0.30;;;13.30;55.50;;;;;;4963902;28;20487;-48
2023/04/01 04:08:21;;;;;;;1.25;0.30;;;13.30;55.70;;;;;;4966593;28;20055;-46
2023/04/01 04:10:48;;;;;;;0.43;0.20;;;13.30;55.70;;;;;;4966406;28;20499;-47
2023/04/01 04:13:16;;;;;;;1.08;0.25;;;13.30;55.80;;;;;;4966277;28;20061;-48
2023/04/01 04:15:43;;;;;;;1.63;0.15;;;13.30;55.80;;;;;;4964021;28;20078;-47
2023/04/01 04:18:11;;;;;;;1.10;0.30;;;13.30;55.80;;;;;;4969638;28;20148;-49
2023/04/01 04:20:46;;;;;;;0.75;0.20;;;13.30;55.80;;;;;;4969867;28;20061;-48
2023/04/01 04:23:15;;;;;;;2.60;0.30;;;13.20;55.80;;;;;;4969529;28;20058;-47
2023/04/01 04:25:53;;;;;;;0.80;0.10;;;13.30;55.80;;;;;;4965530;28;20415;-46
2023/04/01 04:28:20;;;;;;;0.85;0.20;;;13.30;55.80;;;;;;4966940;28;20077;-46
2023/04/01 04:30:48;;;;;;;0.52;0.20;;;13.30;55.80;;;;;;4966367;28;20061;-47
2023/04/01 04:33:15;;;;;;;0.45;0.10;;;13.30;55.80;;;;;;4966410;28;20054;-46
2023/04/01 04:35:42;;;;;;;0.85;0.30;;;13.30;55.80;;;;;;4963252;28;20515;-47
2023/04/01 04:38:10;;;;;;;1.35;0.30;;;13.20;55.70;;;;;;4965031;28;20047;-45
2023/04/01 04:40:41;;;;;;;1.13;0.30;;;13.20;55.70;;;;;;4965764;28;20066;-46
2023/04/01 04:43:11;;;;;;;0.95;0.13;;;13.20;55.60;;;;;;4969637;28;20449;-48
2023/04/01 04:45:39;;;;;;;0.30;0.10;;;13.20;55.60;;;;;;4966594;28;20050;-46
2023/04/01 04:48:08;;;;;;;1.77;0.20;;;13.30;55.60;;;;;;4965239;28;20050;-46
2023/04/01 04:50:35;;;;;;;0.63;0.15;;;13.20;55.60;;;;;;4963275;28;20065;-47
2023/04/01 04:53:03;;;;;;;0.55;0.20;;;13.20;55.60;;;;;;4966023;28;20065;-49
2023/04/01 04:55:30;;;;;;;0.63;0.20;;;13.20;55.60;;;;;;4967522;28;20498;-47
2023/04/01 04:58:00;;;;;;;2.40;0.20;;;13.30;55.60;;;;;;4964321;28;20051;-46
2023/04/01 05:00:27;;;;;;;0.55;0.20;;;13.20;55.50;;;;;;4963211;28;20438;-46
2023/04/01 05:02:55;;;;;;;0.40;0.10;;;13.20;55.50;;;;;;4963913;28;20066;-47
2023/04/01 05:05:22;;;;;;;0.43;0.25;;;13.20;55.50;;;;;;4963515;28;20054;-49
2023/04/01 05:07:50;;;;;;;0.95;0.10;;;13.20;55.50;;;;;;4966698;28;20498;-46
2023/04/01 05:10:18;;;;;;;0.57;0.10;;;13.20;56.00;;;;;;4965761;28;20054;-47
2023/04/01 05:12:45;;;;;;;0.10;0.10;;;13.20;55.50;;;;;;4965645;28;20514;-47
2023/04/01 05:15:15;;;;;;;0.60;0.10;;;13.20;55.60;;;;;;4963042;28;20065;-49
2023/04/01 05:17:42;;;;;;;0.70;0.20;;;13.20;55.60;;;;;;4965064;28;20061;-47
2023/04/01 05:20:12;;;;;;;0.20;0.20;;;13.20;55.60;;;;;;4964617;28;20058;-47
2023/04/01 05:22:40;;;;;;;0.57;0.10;;;13.20;56.10;;;;;;4968957;28;20506;-49
2023/04/01 05:25:08;;;;;;;1.55;0.20;;;13.20;55.60;;;;;;4964963;28;20055;-47
2023/04/01 05:27:36;;;;;;;1.08;0.22;;;13.20;55.70;;;;;;4964696;28;20054;-47
2023/04/01 05:30:05;;;;;;;0.85;0.20;;;13.20;55.70;;;;;;4966180;28;20047;-46
2023/04/01 05:32:35;;;;;;;0.43;0.10;;;13.20;55.70;;;;;;4964870;28;20419;-48
2023/04/01 05:35:03;;;;;;;0.10;0.10;;;13.20;55.80;;;;;;4964831;28;20439;-48
2023/04/01 05:37:31;;;;;;;0.63;0.20;;;13.20;55.80;;;;;;4967557;28;20502;-46
2023/04/01 05:39:59;;;;;;;0.80;0.20;;;13.20;55.80;;;;;;4968465;28;20061;-46
2023/04/01 05:42:27;;;;;;;0.38;0.10;;;13.20;55.90;;;;;;4967263;28;20502;-48
2023/04/01 05:44:55;;;;;;;0.90;0.28;;;13.20;55.80;;;;;;4964195;28;20061;-45
2023/04/01 05:47:23;;;;;;;0.95;0.20;;;13.20;55.90;;;;;;4965488;28;20055;-46
2023/04/01 05:49:52;;;;;;;1.52;0.25;;;13.20;55.90;;;;;;4962857;28;20503;-48
2023/04/01 05:52:20;;;;;;;0.52;0.10;;;13.20;55.90;;;;;;4965668;28;20065;-47
2023/04/01 05:54:49;;;;;;;0.40;0.03;;;13.20;55.90;;;;;;4964761;28;20054;-47
2023/04/01 05:57:17;;;;;;;1.00;0.25;;;13.20;55.90;;;;;;4962881;28;20055;-47
2023/04/01 05:59:45;;;;;;;1.90;0.20;;;13.20;55.90;;;;;;4963475;28;20379;-48
2023/04/01 06:02:19;;;;;;;0.32;0.05;;;13.20;55.90;;;;;;4966555;28;20066;-47
2023/04/01 06:04:46;;;;;;;0.10;0.08;;;13.20;56.00;;;;;;4966933;28;20055;-48
2023/04/01 06:07:16;;;;;;;0.08;0.00;;;13.20;56.00;;;;;;4963005;28;20054;-47
2023/04/01 06:09:45;;;;;;;0.52;0.17;;;13.20;56.00;;;;;;4965077;28;20446;-48
2023/04/01 06:12:30;;;;;;;0.95;0.20;;;13.20;56.00;;;;;;4964635;28;20058;-47
2023/04/01 06:15:07;;;;;;;3.25;1.48;;;13.20;56.10;;;;;;4962925;28;20059;-47
2023/04/01 06:17:50;;;;;;;7.07;3.20;;;13.20;56.10;;;;;;4964986;28;20050;-50
2023/04/01 06:20:25;;;;;;;11.45;7.90;;;13.20;56.20;;;;;;4962368;28;20043;-47
2023/04/01 06:23:07;;;;;;;12.80;8.65;;;13.20;56.60;;;;;;4965539;28;20399;-49
2023/04/01 06:25:50;;;;;;;4.40;3.45;;;13.20;56.20;;;;;;4963138;28;20058;-48
2023/04/01 06:28:42;;;;;;;2.15;1.20;;;13.20;56.20;;;;;;4965963;28;20058;-45
2023/04/01 06:31:21;;;;;;;0.50;0.50;;;13.30;56.30;;;;;;4965312;28;20051;-46
2023/04/01 06:34:07;;;;;;;0.77;0.43;;;13.30;56.30;;;;;;4966308;28;20065;-45
2023/04/01 06:36:54;;;;;;;1.30;0.70;;;13.30;56.40;;;;;;4965799;28;20058;-47
2023/04/01 06:39:54;;;;;;;1.70;0.65;;;13.30;56.50;;;;;;4963845;28;20053;-46
2023/04/01 06:42:54;;;;;;;1.95;0.80;;;13.30;56.50;;;;;;4964786;28;20047;-48
2023/04/01 06:45:35;;;;;;;1.95;1.15;;;13.30;56.50;;;;;;4954198;28;20065;-47
2023/04/01 06:48:19;;;;;;;1.42;0.85;;;13.30;56.60;;;;;;4963577;28;20057;-47
2023/04/01 06:50:54;;;;;;;0.93;0.80;;;13.30;56.50;;;;;;4962318;28;20051;-47
2023/04/01 06:53:29;;;;;;;0.28;0.22;;;13.30;56.50;;;;;;4964537;28;21056;-47
2023/04/01 06:56:03;;;;;;;0.35;0.35;;;13.30;56.50;;;;;;4964606;28;20402;-47
2023/04/01 06:58:35;;;;;;;0.55;0.40;;;13.30;56.50;;;;;;4963969;28;20127;-46
2023/04/01 07:01:05;;;;;;;0.30;0.30;;;13.40;56.60;;;;;;4967265;28;20078;-46
2023/04/01 07:03:37;;;;;;;0.60;0.28;;;13.40;56.60;;;;;;4966163;28;20051;-47
2023/04/01 07:16:27;;;;;;;0.38;0.13;;;13.40;56.60;;;;;;4971656;28;20034;-45
2023/04/01 07:19:00;;;;;;;0.10;0.10;;;13.50;56.60;;;;;;4963828;28;20061;-49
2023/04/01 07:21:31;;;;;;;2.63;0.77;;;13.50;56.60;;;;;;4966688;28;20055;-46
2023/04/01 07:24:04;;;;;;;0.70;0.50;;;13.50;56.70;;;;;;4965958;28;20062;-46
2023/04/01 07:26:32;;;;;;;0.50;0.40;;;13.50;56.80;;;;;;4966057;28;20050;-45
2023/04/01 07:28:59;;;;;;;0.50;0.30;;;13.50;56.80;;;;;;4968495;28;20059;-45
2023/04/01 07:31:43;;;;;;;1.95;1.08;;;13.50;56.90;;;;;;4967619;28;20074;-46
2023/04/01 07:34:15;;;;;;;1.38;0.70;;;13.50;57.00;;;;;;4965842;28;20046;-46
2023/04/01 07:36:47;;;;;;;1.23;0.63;;;13.50;57.00;;;;;;4968220;28;20503;-46
2023/04/01 07:39:27;;;;;;;1.67;0.55;;;13.50;57.00;;;;;;4966653;28;20054;-46
2023/04/01 07:42:02;;;;;;;0.63;0.40;;;13.50;57.10;;;;;;4968560;28;20062;-46
2023/04/01 07:44:41;;;;;;;0.32;0.30;;;13.60;57.30;;;;;;4966823;28;20058;-46
2023/04/01 07:47:23;;;;;;;0.57;0.30;;;13.60;57.30;;;;;;4967529;28;20050;-48
2023/04/01 07:50:00;;;;;;;1.75;0.68;;;13.70;57.40;;;;;;4967363;28;20053;-46
2023/04/01 07:52:34;;;;;;;0.98;0.60;;;13.70;57.50;;;;;;4967269;28;20062;-45
2023/04/01 07:55:10;;;;;;;0.45;0.30;;;13.70;57.40;;;;;;4966132;28;20502;-47
2023/04/01 07:57:42;;;;;;;0.98;0.30;;;13.80;57.40;;;;;;4966077;28;20065;-48
2023/04/01 08:00:16;;;;;;;0.32;0.10;;;13.80;57.40;;;;;;4965168;28;20119;-58
2023/04/01 08:03:12;;;;;;;0.47;0.43;;;13.80;57.40;;;;;;4965500;28;20062;-47
2023/04/01 08:05:47;;;;;;;1.58;0.40;;;13.80;57.30;;;;;;4967653;28;20063;-47
2023/04/01 08:08:23;;;;;;;0.95;0.30;;;13.80;57.20;;;;;;4966730;28;20055;-47
2023/04/01 08:10:57;;;;;;;2.05;0.22;;;13.90;57.20;;;;;;4966140;28;20058;-53
2023/04/01 08:13:34;;;;;;;0.45;0.20;;;13.90;57.20;;;;;;4965488;28;20066;-47
2023/04/01 08:16:12;;;;;;;0.47;0.25;;;13.80;57.20;;;;;;4965896;28;20495;-49
2023/04/01 08:18:48;;;;;;;0.40;0.20;;;13.90;57.20;;;;;;4965127;28;20055;-47
2023/04/01 08:21:20;;;;;;;0.65;0.30;;;13.90;57.20;;;;;;4965528;28;20521;-47
2023/04/01 08:23:50;;;;;;;0.30;0.30;;;13.90;57.20;;;;;;4966282;28;20162;-47
2023/04/01 08:26:24;;;;;;;0.20;0.17;;;13.90;57.30;;;;;;4965565;28;20055;-47
2023/04/01 08:28:55;;;;;;;0.77;0.25;;;13.90;57.30;;;;;;4966255;28;20050;-47
2023/04/01 08:31:31;;;;;;;0.17;0.15;;;13.90;57.30;;;;;;4965998;28;20074;-47
2023/04/01 08:34:02;;;;;;;0.10;0.10;;;13.90;57.30;;;;;;4963565;28;20947;-50
2023/04/01 08:36:33;;;;;;;0.25;0.22;;;13.90;57.30;;;;;;4966630;28;20487;-48
2023/04/01 08:39:05;;;;;;;0.55;0.13;;;13.90;57.30;;;;;;4966658;28;20065;-48
2023/04/01 08:41:55;;;;;;;0.52;0.25;;;13.90;57.30;;;;;;4967099;28;20073;-47
2023/04/01 08:44:40;;;;;;;0.13;0.13;;;13.90;57.80;;;;;;4966046;28;20414;-47
2023/04/01 08:47:25;;;;;;;0.15;0.15;;;13.90;57.30;;;;;;4965204;28;20062;-50
2023/04/01 08:50:11;;;;;;;0.80;0.47;;;13.90;57.30;;;;;;4965363;28;20054;-48
2023/04/01 08:52:47;;;;;;;0.90;0.60;;;13.90;57.40;;;;;;4965958;28;20059;-49
2023/04/01 08:55:32;;;;;;;1.08;0.30;;;13.90;57.30;;;;;;4967499;28;20047;-49
2023/04/01 08:58:43;;;;;;;0.80;0.30;;;13.90;57.50;;;;;;4965601;28;20494;-49
2023/04/01 09:01:27;;;;;;;0.68;0.47;;;13.90;57.50;;;;;;4930693;28;20062;-47
2023/04/01 09:04:14;;;;;;;0.80;0.40;;;14.00;57.50;;;;;;4963758;28;20055;-47
2023/04/01 09:06:53;;;;;;;1.10;0.55;;;14.00;57.50;;;;;;4966184;28;20506;-49
2023/04/01 09:09:41;;;;;;;1.42;0.40;;;14.00;57.60;;;;;;4966472;28;20062;-48
2023/04/01 09:12:45;;;;;;;0.82;0.60;;;14.00;57.70;;;;;;4966145;28;20069;-47
2023/04/01 09:15:38;;;;;;;0.77;0.63;;;14.00;57.70;;;;;;4962904;28;20062;-47
2023/04/01 09:18:29;;;;;;;2.17;0.88;;;14.00;57.70;;;;;;4965808;28;20062;-47
2023/04/01 09:21:33;;;;;;;1.38;0.90;;;14.00;57.80;;;;;;4965829;28;20701;-48
2023/04/01 09:24:33;;;;;;;1.17;0.75;;;14.00;57.80;;;;;;4940464;28;20054;-56
2023/04/01 09:27:06;;;;;;;0.85;0.77;;;14.10;57.90;;;;;;4952828;28;20061;-51
2023/04/01 09:30:10;;;;;;;0.70;0.70;;;14.00;57.80;;;;;;4962488;28;20522;-48
2023/04/01 09:32:56;;;;;;;1.23;0.50;;;14.00;57.90;;;;;;4965886;28;20141;-46
2023/04/01 09:35:25;;;;;;;0.73;0.57;;;14.10;57.90;;;;;;4963028;28;20081;-47
2023/04/01 09:38:01;;;;;;;1.55;0.30;;;14.10;58.00;;;;;;4965725;28;20054;-46
2023/04/01 09:40:42;;;;;;;0.30;0.20;;;14.10;58.10;;;;;;4965154;28;20671;-48
2023/04/01 09:43:26;;;;;;;1.20;0.22;;;14.00;58.10;;;;;;4965495;28;20058;-49
2023/04/01 09:46:10;;;;;;;0.35;0.20;;;14.00;58.20;;;;;;4963747;28;20410;-47
2023/04/01 09:49:12;;;;;;;2.17;0.63;;;14.10;58.20;;;;;;4962660;28;20363;-46
2023/04/01 09:51:51;;;;;;;0.93;0.20;;;14.10;58.60;;;;;;4963300;28;20059;-46
2023/04/01 09:54:29;;;;;;;0.55;0.25;;;14.10;58.40;;;;;;4964681;28;20058;-48
2023/04/01 09:57:31;;;;;;;0.88;0.20;;;14.10;58.50;;;;;;4965119;28;20303;-51
2023/04/01 10:00:16;;;;;;;0.10;0.10;;;14.10;58.40;;;;;;4965079;28;20455;-48
2023/04/01 10:03:29;;;;;;;0.30;0.20;;;14.10;58.30;;;;;;4965930;28;20058;-47
2023/04/01 10:06:31;;;;;;;0.10;0.10;;;14.10;58.30;;;;;;4963824;28;20069;-46
2023/04/01 10:09:26;;;;;;;0.20;0.10;;;14.20;58.30;;;;;;4964218;28;20051;-47
2023/04/01 10:12:03;;;;;;;;;;;14.10;58.50;;;;;;4965681;28;20050;-48
2023/04/01 10:15:12;;;;;;;1.15;0.25;;;14.20;58.40;;;;;;4962672;28;19925;-49
2023/04/01 10:18:08;;;;;;;0.95;0.25;;;14.20;58.40;;;;;;4962947;28;20061;-46
2023/04/01 10:20:53;;;;;;;0.20;0.20;;;14.20;58.40;;;;;;4959726;28;20050;-47
2023/04/01 10:23:38;;;;;;;0.10;0.10;;;14.20;58.40;;;;;;4965728;28;20050;-49
2023/04/01 10:26:39;;;;;;;0.95;0.20;;;14.20;58.50;;;;;;4964229;28;20414;-49
2023/04/01 10:29:37;;;;;;;0.20;0.20;;;14.20;58.30;;;;;;4962174;28;20061;-54
2023/04/01 10:32:30;;;;;;;0.25;0.20;;;14.20;58.30;;;;;;4963046;28;20050;-47
2023/04/01 10:35:26;;;;;;;0.32;0.30;;;14.20;58.40;;;;;;4962643;28;20058;-47
2023/04/01 10:38:20;;;;;;;0.20;0.10;;;14.20;58.40;;;;;;4963691;28;20080;-46
2023/04/01 10:41:10;;;;;;;1.17;0.40;;;14.20;58.40;;;;;;4965701;28;20402;-47
2023/04/01 10:44:08;;;;;;;0.30;0.28;;;14.30;58.60;;;;;;4963800;28;20511;-50
2023/04/01 10:47:07;;;;;;;0.10;0.10;;;14.30;58.40;;;;;;4964987;28;20059;-48
2023/04/01 10:49:45;;;;;;;0.20;0.10;;;14.30;58.40;;;;;;4962150;28;20529;-50
2023/04/01 10:52:45;;;;;;;1.00;0.20;;;14.30;58.30;;;;;;4964865;28;20054;-45
2023/04/01 10:56:00;;;;;;;0.15;0.15;;;14.30;58.10;;;;;;4961251;28;20054;-48
2023/04/01 10:59:00;;;;;;;0.90;0.20;;;14.30;57.80;;;;;;4930130;28;20062;-46
2023/04/01 11:02:07;;;;;;;0.10;0.10;;;14.30;57.30;;;;;;4961360;28;20062;-46
2023/04/01 11:05:14;;;;;;;0.20;0.10;;;14.30;57.40;;;;;;4952994;28;20066;-47
2023/04/01 11:08:14;;;;;;;0.20;0.17;;;14.20;57.50;;;;;;4962406;28;20636;-45
2023/04/01 11:11:21;;;;;;;0.10;0.10;;;14.20;57.70;;;;;;4963681;28;20058;-47
2023/04/01 11:14:38;;;;;;;0.32;0.10;;;14.20;57.80;;;;;;4966167;28;20395;-47
2023/04/01 11:17:28;;;;;;;0.10;0.10;;;14.20;58.10;;;;;;4963908;28;20058;-52
2023/04/01 11:20:22;;;;;;;0.20;0.20;;;14.30;58.30;;;;;;4962186;28;20059;-46
2023/04/01 11:23:07;;;;;;;;;;;14.30;58.40;;;;;;4964225;28;20051;-47
2023/04/01 11:26:03;;;;;;;0.25;0.20;;;14.40;58.30;;;;;;4957120;28;19933;-47
2023/04/01 11:29:20;;;;;;;0.20;0.10;;;14.40;58.20;;;;;;4963265;28;20051;-52
2023/04/01 11:31:59;;;;;;;0.20;0.17;;;14.50;58.20;;;;;;4964633;28;20062;-47
2023/04/01 11:34:56;;;;;;;0.40;0.30;;;14.50;58.20;;;;;;4961422;28;20055;-48
2023/04/01 11:37:33;;;;;;;0.20;0.17;;;14.50;58.20;;;;;;4963787;28;20054;-47
2023/04/01 11:40:13;;;;;;;0.47;0.20;;;14.50;58.10;;;;;;4963399;28;20058;-47
2023/04/01 11:42:50;;;;;;;0.38;0.10;;;14.50;58.30;;;;;;4963496;28;20062;-47
2023/04/01 11:45:30;;;;;;;0.30;0.15;;;14.50;58.30;;;;;;4963478;28;20356;-46
2023/04/01 11:48:25;;;;;;;0.32;0.28;;;14.50;58.30;;;;;;4966930;28;20093;-52
2023/04/01 11:51:22;;;;;;;0.40;0.20;;;14.60;58.40;;;;;;4966519;28;20054;-46
2023/04/01 11:53:59;;;;;;;0.30;0.20;;;14.60;58.50;;;;;;4966665;28;20058;-49
2023/04/01 11:56:44;;;;;;;0.28;0.20;;;14.70;58.50;;;;;;4966918;28;20058;-46
2023/04/01 11:59:42;;;;;;;1.27;0.50;;;14.60;58.50;;;;;;4965339;28;20418;-47
2023/04/01 12:02:17;;;;;;;1.20;0.70;;;14.70;58.50;;;;;;4967129;28;20055;-45
2023/04/01 12:05:08;;;;;;;0.85;0.30;;;14.70;58.50;;;;;;4967080;28;20059;-46
2023/04/01 12:07:51;;;;;;;1.10;0.30;;;14.80;58.50;;;;;;4965890;28;20055;-48
2023/04/01 12:10:22;;;;;;;0.28;0.28;;;14.80;58.10;;;;;;4966905;28;20055;-46
2023/04/01 12:13:00;;;;;;;1.27;0.20;;;14.80;57.80;;;;;;4966858;28;20135;-45
2023/04/01 12:15:34;;;;;;;0.75;0.30;;;14.80;57.90;;;;;;4964576;28;20051;-47
2023/04/01 12:18:11;;;;;;;1.27;0.20;;;14.80;58.20;;;;;;4967194;28;20415;-50
2023/04/01 12:20:47;;;;;;;0.50;0.30;;;14.80;58.20;;;;;;4965473;28;20059;-48
2023/04/01 12:23:38;;;;;;;0.60;0.30;;;14.80;58.10;;;;;;4966484;28;20050;-48
2023/04/01 12:26:20;;;;;;;0.98;0.30;;;14.80;58.00;;;;;;4964323;28;20043;-47
2023/04/01 12:29:04;;;;;;;0.50;0.10;;;14.80;57.80;;;;;;4968272;28;20527;-46
2023/04/01 12:31:43;;;;;;;0.73;0.37;;;14.80;57.80;;;;;;4969123;28;20051;-46
2023/04/01 12:34:48;;;;;;;1.67;0.28;;;14.80;58.00;;;;;;4966119;28;21184;-46
2023/04/01 12:37:22;;;;;;;0.63;0.30;;;14.80;58.10;;;;;;4964762;28;20521;-44
2023/04/01 12:40:02;;;;;;;0.75;0.40;;;14.80;58.20;;;;;;4967203;28;20059;-44
2023/04/01 12:42:44;;;;;;;0.20;0.20;;;14.80;58.20;;;;;;4965744;28;20050;-44
2023/04/01 12:45:30;;;;;;;0.57;0.30;;;14.80;58.20;;;;;;4961305;28;20480;-45
2023/04/01 12:48:11;;;;;;;1.10;0.50;;;14.80;58.20;;;;;;4966430;28;20074;-43
2023/04/01 12:50:57;;;;;;;1.48;0.60;;;14.90;58.30;;;;;;4964831;28;21187;-43
2023/04/01 12:53:39;;;;;;;0.82;0.30;;;14.80;58.80;;;;;;4967248;28;20483;-43
2023/04/01 12:56:13;;;;;;;0.70;0.30;;;14.90;58.50;;;;;;4966328;28;20054;-43
2023/04/01 12:59:20;;;;;;;0.22;0.22;;;14.90;58.30;;;;;;4965630;28;20066;-45
2023/04/01 13:02:00;;;;;;;0.88;0.50;;;14.90;58.30;;;;;;4966062;28;20054;-45
2023/04/01 13:04:56;;;;;;;0.40;0.35;;;14.90;58.30;;;;;;4962028;28;20541;-45
2023/04/01 13:07:44;;;;;;;0.22;0.22;;;14.90;58.60;;;;;;4965439;28;20518;-48
2023/04/01 13:10:26;;;;;;;1.20;0.40;;;14.90;58.40;;;;;;4963774;28;20061;-45
2023/04/01 13:13:19;;;;;;;0.20;0.20;;;15.00;58.20;;;;;;4966859;28;20054;-45
2023/04/01 13:15:50;;;;;;;0.47;0.20;;;15.00;57.90;;;;;;4966560;28;20055;-46
2023/04/01 13:18:29;;;;;;;0.20;0.20;;;15.00;57.70;;;;;;4963020;28;20051;-44
2023/04/01 13:21:09;;;;;;;0.20;0.20;;;15.00;57.70;;;;;;4961761;28;20434;-46
2023/04/01 13:23:54;;;;;;;0.82;0.20;;;15.00;57.60;;;;;;4965352;28;20051;-45
2023/04/01 13:26:28;;;;;;;0.43;0.20;;;15.00;57.60;;;;;;4965325;28;20391;-45
2023/04/01 13:29:02;;;;;;;0.40;0.22;;;15.00;57.50;;;;;;4965737;28;20058;-46
2023/04/01 13:31:54;;;;;;;2.60;0.20;;;15.00;57.60;;;;;;4966303;28;20058;-44
2023/04/01 13:34:34;;;;;;;0.60;0.28;;;15.00;57.80;;;;;;4961766;28;20538;-46
2023/04/01 13:37:18;;;;;;;0.70;0.40;;;15.00;57.90;;;;;;4964973;28;20051;-46
2023/04/01 13:40:05;;;;;;;0.85;0.20;;;15.00;57.90;;;;;;4965067;28;20051;-47
2023/04/01 13:42:40;;;;;;;1.38;0.20;;;15.00;58.00;;;;;;4964739;28;20965;-44
2023/04/01 13:45:16;;;;;;;0.20;0.20;;;15.00;57.80;;;;;;4965351;28;20467;-44
2023/04/01 13:48:34;;;;;;;0.20;0.20;;;15.00;57.70;;;;;;4965874;28;20054;-45
2023/04/01 13:51:23;;;;;;;0.25;0.25;;;15.00;57.70;;;;;;4962598;28;20062;-45
2023/04/01 13:54:48;;;;;;;0.47;0.30;;;15.00;57.90;;;;;;4964936;28;20055;-44